Time;durP1;ratioP1;P1;durP2;ratioP2;P2;SDS_P1;SDS_P2;PMS_P1;PMS_P2;Temp;Humidity;BMP_temperature;BMP_pressure;BME280_temperature;BME280_humidity;BME280_pressure;Samples;Min_cycle;Max_cycle;Signal;HPM_P1;HPM_P2
2023/10/26 00:03:38;;;;;;;27.90;13.80;;;;;;;;;;8492435;27;20046;-92
2023/10/26 00:07:48;;;;;;;34.38;12.80;;;;;;;;;;8488472;27;20040;-92
2023/10/26 00:12:09;;;;;;;30.08;14.77;;;;;;;;;;8486511;27;20119;-93
2023/10/26 00:16:12;;;;;;;31.25;14.00;;;;;;;;;;8490715;27;20039;-92
2023/10/26 00:20:15;;;;;;;33.38;14.52;;;;;;;;;;8492246;27;20035;-93
2023/10/26 00:24:19;;;;;;;35.78;13.90;;;;;;;;;;8495993;27;20051;-92
2023/10/26 00:28:22;;;;;;;30.33;13.77;;;;;;;;;;8498728;27;20467;-95
2023/10/26 00:32:26;;;;;;;34.67;14.15;;;;;;;;;;8481371;27;20077;-95
2023/10/26 00:36:35;;;;;;;38.25;14.20;;;;;;;;;;8496871;27;20059;-95
2023/10/26 00:40:40;;;;;;;35.22;13.93;;;;;;;;;;8498681;27;20507;-94
2023/10/26 00:44:46;;;;;;;39.10;14.30;;;;;;;;;;8497362;27;20035;-90
2023/10/26 00:48:49;;;;;;;43.50;15.40;;;;;;;;;;8501099;27;20497;-95
2023/10/26 00:52:53;;;;;;;36.38;14.57;;;;;;;;;;8504236;27;20474;-94
2023/10/26 00:56:58;;;;;;;36.03;13.88;;;;;;;;;;8473499;27;20047;-90
2023/10/26 01:01:01;;;;;;;32.05;13.27;;;;;;;;;;8504810;27;20054;-93
2023/10/26 01:05:04;;;;;;;33.58;13.63;;;;;;;;;;8486740;27;20047;-90
2023/10/26 01:09:08;;;;;;;32.85;12.82;;;;;;;;;;8504005;27;20043;-90
2023/10/26 01:13:13;;;;;;;36.22;13.70;;;;;;;;;;8503666;27;20471;-93
2023/10/26 01:17:16;;;;;;;37.95;12.15;;;;;;;;;;8492466;27;20483;-90
2023/10/26 01:21:28;;;;;;;39.58;14.70;;;;;;;;;;8494473;27;20078;-93
2023/10/26 01:25:31;;;;;;;39.17;13.70;;;;;;;;;;8496430;27;20061;-93
2023/10/26 01:29:34;;;;;;;42.97;14.20;;;;;;;;;;8503636;27;20375;-89
2023/10/26 01:33:38;;;;;;;37.33;14.18;;;;;;;;;;8502427;27;20164;-92
2023/10/26 01:37:52;;;;;;;32.33;12.73;;;;;;;;;;8502203;27;20086;-93
2023/10/26 01:41:55;;;;;;;43.30;15.10;;;;;;;;;;8503203;27;20084;-90
2023/10/26 01:45:58;;;;;;;45.10;15.68;;;;;;;;;;8502452;27;20039;-93
2023/10/26 01:50:02;;;;;;;42.42;15.18;;;;;;;;;;8502626;27;20054;-91
2023/10/26 01:54:06;;;;;;;42.70;15.77;;;;;;;;;;8502052;27;20380;-90
2023/10/26 01:58:09;;;;;;;44.10;15.43;;;;;;;;;;8502823;27;20506;-89
2023/10/26 02:02:12;;;;;;;40.00;15.23;;;;;;;;;;8501897;27;20039;-94
2023/10/26 02:06:15;;;;;;;37.75;14.32;;;;;;;;;;8501321;27;20043;-93
2023/10/26 02:10:20;;;;;;;31.92;13.57;;;;;;;;;;8500169;27;20047;-90
2023/10/26 02:14:23;;;;;;;43.92;15.40;;;;;;;;;;8500096;27;20046;-90
2023/10/26 02:18:26;;;;;;;487.73;230.55;;;;;;;;;;8497382;27;20061;-89
2023/10/26 02:22:29;;;;;;;567.45;358.23;;;;;;;;;;8499700;27;20047;-90
2023/10/26 02:26:33;;;;;;;759.65;438.08;;;;;;;;;;8497099;27;20050;-91
2023/10/26 02:30:36;;;;;;;156.15;74.75;;;;;;;;;;8475625;27;20043;-92
2023/10/26 02:34:39;;;;;;;155.93;85.82;;;;;;;;;;8494799;27;20051;-90
2023/10/26 02:38:42;;;;;;;155.35;94.10;;;;;;;;;;8484817;27;20479;-91
2023/10/26 02:42:47;;;;;;;65.78;36.78;;;;;;;;;;8500361;27;20482;-92
2023/10/26 02:46:50;;;;;;;88.18;43.70;;;;;;;;;;8470629;27;20047;-90
2023/10/26 02:50:53;;;;;;;60.22;25.02;;;;;;;;;;8500774;27;20507;-93
2023/10/26 02:54:56;;;;;;;46.83;15.60;;;;;;;;;;8501095;27;20071;-90
2023/10/26 02:59:00;;;;;;;46.67;15.40;;;;;;;;;;8501304;27;20130;-93
2023/10/26 03:03:04;;;;;;;46.53;15.25;;;;;;;;;;8499803;27;20122;-94
2023/10/26 03:07:07;;;;;;;53.63;15.65;;;;;;;;;;8499705;27;20059;-89
2023/10/26 03:11:10;;;;;;;57.85;15.35;;;;;;;;;;8501601;27;20043;-93
2023/10/26 03:15:14;;;;;;;54.03;16.70;;;;;;;;;;8501485;27;20035;-94
2023/10/26 03:19:17;;;;;;;53.33;16.40;;;;;;;;;;8482768;27;20072;-91
2023/10/26 03:23:20;;;;;;;54.45;17.42;;;;;;;;;;8481519;27;20163;-91
2023/10/26 03:27:23;;;;;;;59.47;16.88;;;;;;;;;;8499631;27;20122;-91
2023/10/26 03:31:28;;;;;;;61.95;17.02;;;;;;;;;;8485730;27;20118;-92
2023/10/26 03:35:35;;;;;;;62.75;18.85;;;;;;;;;;8499239;27;20142;-94
2023/10/26 03:39:38;;;;;;;55.55;16.67;;;;;;;;;;8499246;27;20042;-93
2023/10/26 03:43:41;;;;;;;66.30;23.08;;;;;;;;;;8499627;27;20043;-90
2023/10/26 03:47:45;;;;;;;71.32;24.58;;;;;;;;;;8498470;27;20047;-92
2023/10/26 03:51:49;;;;;;;80.05;26.23;;;;;;;;;;8498987;27;20074;-90
2023/10/26 03:55:51;;;;;;;67.28;22.13;;;;;;;;;;8494236;27;20495;-93
2023/10/26 03:59:54;;;;;;;82.00;30.15;;;;;;;;;;8490276;27;20099;-89
2023/10/26 04:03:59;;;;;;;101.15;42.47;;;;;;;;;;8498361;27;20497;-89
2023/10/26 04:08:04;;;;;;;106.72;43.55;;;;;;;;;;8480218;27;20050;-93
2023/10/26 04:12:07;;;;;;;63.63;22.20;;;;;;;;;;8498467;27;20475;-91
2023/10/26 04:16:10;;;;;;;74.18;22.73;;;;;;;;;;8460830;27;20054;-93
2023/10/26 04:20:15;;;;;;;67.97;22.38;;;;;;;;;;8496411;27;20084;-91
2023/10/26 04:24:18;;;;;;;73.43;20.45;;;;;;;;;;8498784;27;20039;-94
2023/10/26 04:28:21;;;;;;;64.45;19.27;;;;;;;;;;8481240;27;20061;-94
2023/10/26 04:32:25;;;;;;;64.65;20.02;;;;;;;;;;8498333;27;20383;-90
2023/10/26 04:36:29;;;;;;;54.63;18.80;;;;;;;;;;8463277;28;20078;-93
2023/10/26 04:40:32;;;;;;;64.20;20.10;;;;;;;;;;8464734;28;20501;-92
2023/10/26 04:44:35;;;;;;;58.00;18.77;;;;;;;;;;8464045;28;20376;-90
2023/10/26 04:48:39;;;;;;;57.25;19.27;;;;;;;;;;8464757;28;20043;-95
2023/10/26 04:52:43;;;;;;;63.00;20.20;;;;;;;;;;8466527;28;20044;-91
2023/10/26 04:56:48;;;;;;;54.67;19.27;;;;;;;;;;8452236;28;20502;-92
2023/10/26 05:00:51;;;;;;;54.50;19.00;;;;;;;;;;8452860;28;20067;-91
2023/10/26 05:04:56;;;;;;;50.17;18.63;;;;;;;;;;8465742;28;20050;-91
2023/10/26 05:09:03;;;;;;;49.08;18.77;;;;;;;;;;8464133;28;20054;-95
2023/10/26 05:13:08;;;;;;;47.38;17.67;;;;;;;;;;8452563;28;20126;-92
2023/10/26 05:17:11;;;;;;;44.33;16.88;;;;;;;;;;8463261;28;20480;-95
2023/10/26 05:21:14;;;;;;;46.80;17.33;;;;;;;;;;8437996;28;20097;-94
2023/10/26 05:25:19;;;;;;;47.40;22.88;;;;;;;;;;8449942;28;20071;-91
2023/10/26 05:29:22;;;;;;;48.08;23.38;;;;;;;;;;8438281;28;20060;-92
2023/10/26 05:33:25;;;;;;;65.25;35.25;;;;;;;;;;8457014;28;20039;-90
2023/10/26 05:37:28;;;;;;;39.65;18.70;;;;;;;;;;8485605;27;20063;-92
2023/10/26 05:41:33;;;;;;;41.30;22.08;;;;;;;;;;8504425;27;20035;-92
2023/10/26 05:45:39;;;;;;;44.15;20.67;;;;;;;;;;8503973;27;20400;-92
2023/10/26 05:49:42;;;;;;;40.40;21.77;;;;;;;;;;8497922;27;20474;-94
2023/10/26 05:53:45;;;;;;;30.10;17.00;;;;;;;;;;8468821;27;20578;-93
2023/10/26 05:57:49;;;;;;;40.90;27.00;;;;;;;;;;8493101;27;20110;-94
2023/10/26 06:01:52;;;;;;;38.47;24.33;;;;;;;;;;8474675;27;20502;-93
2023/10/26 06:06:05;;;;;;;25.42;13.82;;;;;;;;;;8483983;27;20043;-92
2023/10/26 06:10:09;;;;;;;23.40;12.65;;;;;;;;;;8474003;27;20078;-95
2023/10/26 06:14:15;;;;;;;20.70;12.60;;;;;;;;;;8489492;27;20046;-91
2023/10/26 06:18:19;;;;;;;19.05;12.00;;;;;;;;;;8504481;27;20394;-91
2023/10/26 06:22:26;;;;;;;17.00;10.85;;;;;;;;;;8490721;27;20047;-93
2023/10/26 06:26:33;;;;;;;17.20;11.82;;;;;;;;;;8494711;27;20047;-93
2023/10/26 06:30:38;;;;;;;20.95;13.07;;;;;;;;;;8488521;27;20146;-90
2023/10/26 06:34:41;;;;;;;15.07;9.57;;;;;;;;;;8497252;27;20055;-94
2023/10/26 06:38:44;;;;;;;17.17;13.70;;;;;;;;;;8496451;27;20080;-96
2023/10/26 06:42:47;;;;;;;14.98;10.68;;;;;;;;;;8519832;27;20120;-91
2023/10/26 06:46:52;;;;;;;13.00;9.00;;;;;;;;;;8499147;27;20039;-95
2023/10/26 06:51:00;;;;;;;14.25;9.25;;;;;;;;;;8500874;27;20111;-92
2023/10/26 06:55:20;;;;;;;19.13;14.25;;;;;;;;;;8508241;27;20044;-91
2023/10/26 06:59:33;;;;;;;13.27;10.25;;;;;;;;;;8501068;27;20071;-95
2023/10/26 07:03:42;;;;;;;15.85;11.85;;;;;;;;;;8510488;27;20483;-91
2023/10/26 07:12:12;;;;;;;12.02;7.97;;;;;;;;;;8513441;27;20055;-91
2023/10/26 07:16:19;;;;;;;19.25;14.32;;;;;;;;;;8495183;27;20051;-92
2023/10/26 07:20:23;;;;;;;18.73;11.30;;;;;;;;;;8501037;27;20059;-90
2023/10/26 07:24:28;;;;;;;12.38;8.90;;;;;;;;;;8509510;27;20042;-94
2023/10/26 07:28:33;;;;;;;21.52;10.98;;;;;;;;;;8502893;27;20049;-91
2023/10/26 07:32:40;;;;;;;12.57;8.35;;;;;;;;;;8497079;27;20066;-93
2023/10/26 07:36:44;;;;;;;12.93;7.65;;;;;;;;;;8470051;28;20051;-92
2023/10/26 07:40:51;;;;;;;15.50;7.68;;;;;;;;;;8464159;28;20054;-93
2023/10/26 07:44:55;;;;;;;13.45;7.78;;;;;;;;;;8463243;28;20083;-95
2023/10/26 07:48:58;;;;;;;14.05;6.50;;;;;;;;;;8470553;28;20047;-92
2023/10/26 07:53:05;;;;;;;12.23;6.40;;;;;;;;;;8446684;28;20064;-91
2023/10/26 07:57:09;;;;;;;10.10;6.22;;;;;;;;;;8468848;28;20123;-96
2023/10/26 08:01:13;;;;;;;11.50;6.30;;;;;;;;;;8453733;28;20092;-94
2023/10/26 08:05:16;;;;;;;11.48;7.07;;;;;;;;;;8445259;28;20123;-90
2023/10/26 08:09:21;;;;;;;14.07;6.53;;;;;;;;;;8467864;28;20066;-91
2023/10/26 08:13:24;;;;;;;10.52;6.07;;;;;;;;;;8458395;28;20044;-94
2023/10/26 08:17:29;;;;;;;9.85;5.30;;;;;;;;;;8457667;28;20148;-94
2023/10/26 08:21:32;;;;;;;10.77;5.70;;;;;;;;;;8455696;28;20518;-92
2023/10/26 08:25:37;;;;;;;12.98;6.32;;;;;;;;;;8470426;28;20092;-94
2023/10/26 08:29:40;;;;;;;8.80;5.32;;;;;;;;;;8466567;28;20090;-93
2023/10/26 08:33:46;;;;;;;12.43;6.07;;;;;;;;;;8462903;28;20127;-95
2023/10/26 08:37:50;;;;;;;9.00;5.15;;;;;;;;;;8484644;27;20058;-93
2023/10/26 08:41:57;;;;;;;9.60;4.75;;;;;;;;;;8470323;22;20411;-92
2023/10/26 08:46:03;;;;;;;8.18;4.53;;;;;;;;;;8463494;28;20086;-92
2023/10/26 08:50:07;;;;;;;8.80;4.43;;;;;;;;;;8462672;28;20490;-96
2023/10/26 08:54:10;;;;;;;8.00;4.35;;;;;;;;;;8467182;28;20123;-95
2023/10/26 08:58:22;;;;;;;8.73;4.55;;;;;;;;;;8468521;28;20066;-94
2023/10/26 09:02:39;;;;;;;7.93;4.25;;;;;;;;;;8464735;28;20047;-95
2023/10/26 09:07:32;;;;;;;7.72;3.80;;;;;;;;;;8467218;28;20419;-94
2023/10/26 09:11:37;;;;;;;9.35;4.00;;;;;;;;;;8469091;28;20144;-93
2023/10/26 09:15:57;;;;;;;6.43;3.78;;;;;;;;;;8467591;28;20395;-93
2023/10/26 09:20:30;;;;;;;6.57;3.42;;;;;;;;;;8472958;28;20403;-94
2023/10/26 09:24:40;;;;;;;7.70;3.60;;;;;;;;;;8465914;27;20059;-95
2023/10/26 09:28:51;;;;;;;7.17;3.30;;;;;;;;;;8466587;28;20515;-93
2023/10/26 09:38:36;;;;;;;5.88;3.40;;;;;;;;;;8462926;28;20095;-95
2023/10/26 09:42:39;;;;;;;5.25;3.00;;;;;;;;;;8409619;28;20028;-91
2023/10/26 09:46:45;;;;;;;5.50;3.60;;;;;;;;;;8422046;28;20063;-93
2023/10/26 09:50:50;;;;;;;5.63;3.83;;;;;;;;;;8429919;28;20415;-92
2023/10/26 09:55:00;;;;;;;5.55;3.50;;;;;;;;;;8404804;22;20420;-93
2023/10/26 09:59:04;;;;;;;6.82;3.85;;;;;;;;;;8397089;28;20044;-94
2023/10/26 10:03:22;;;;;;;6.57;3.45;;;;;;;;;;8413826;28;20056;-93
2023/10/26 10:08:08;;;;;;;6.43;3.80;;;;;;;;;;8424389;28;20031;-91
2023/10/26 10:12:36;;;;;;;6.28;3.67;;;;;;;;;;8410971;28;20051;-93
2023/10/26 10:17:06;;;;;;;6.75;3.75;;;;;;;;;;8417858;28;20044;-92
2023/10/26 10:21:35;;;;;;;7.32;3.88;;;;;;;;;;8410821;28;20104;-91
2023/10/26 10:26:00;;;;;;;6.50;3.97;;;;;;;;;;8408100;28;20040;-92
2023/10/26 10:30:12;;;;;;;6.80;3.90;;;;;;;;;;8406213;28;20045;-91
2023/10/26 10:34:29;;;;;;;6.53;3.60;;;;;;;;;;8420178;28;20044;-92
2023/10/26 10:38:35;;;;;;;6.72;3.90;;;;;;;;;;8418798;28;20048;-92
2023/10/26 10:42:41;;;;;;;6.45;3.58;;;;;;;;;;8419807;28;20106;-91
2023/10/26 10:46:49;;;;;;;7.35;4.28;;;;;;;;;;8416633;28;20041;-92
2023/10/26 10:50:52;;;;;;;8.43;3.70;;;;;;;;;;8401841;28;20048;-92
2023/10/26 10:54:58;;;;;;;6.15;3.80;;;;;;;;;;8408736;28;20072;-91
2023/10/26 10:59:23;;;;;;;7.38;4.13;;;;;;;;;;8417416;28;20037;-92
2023/10/26 11:03:38;;;;;;;6.85;5.07;;;;;;;;;;8401935;28;20045;-92
2023/10/26 11:07:41;;;;;;;14.43;10.57;;;;;;;;;;8395704;28;20140;-95
2023/10/26 11:11:44;;;;;;;25.42;18.35;;;;;;;;;;8386565;28;20516;-94
2023/10/26 11:15:48;;;;;;;10.18;6.70;;;;;;;;;;8398474;28;20063;-90
2023/10/26 11:19:53;;;;;;;9.75;4.80;;;;;;;;;;8398633;28;20048;-90
2023/10/26 11:23:56;;;;;;;6.57;4.30;;;;;;;;;;8384683;28;20044;-93
2023/10/26 11:28:00;;;;;;;5.78;3.90;;;;;;;;;;8393228;28;20431;-89
2023/10/26 11:32:03;;;;;;;14.25;9.88;;;;;;;;;;8377199;28;20055;-90
2023/10/26 11:36:10;;;;;;;5.45;4.07;;;;;;;;;;8396455;28;20057;-92
2023/10/26 11:40:15;;;;;;;5.53;3.28;;;;;;;;;;8397475;28;20051;-90
2023/10/26 11:44:26;;;;;;;5.63;2.70;;;;;;;;;;8371283;28;20505;-90
2023/10/26 11:48:31;;;;;;;5.57;2.72;;;;;;;;;;8397644;28;20118;-90
2023/10/26 11:52:38;;;;;;;6.53;2.60;;;;;;;;;;8395709;28;20068;-89
2023/10/26 11:56:43;;;;;;;4.65;3.42;;;;;;;;;;8403962;28;20061;-89
2023/10/26 12:00:55;;;;;;;5.43;3.00;;;;;;;;;;8390291;28;20048;-90
2023/10/26 12:04:59;;;;;;;8.57;2.65;;;;;;;;;;8393657;28;20074;-91
2023/10/26 12:09:26;;;;;;;5.93;2.78;;;;;;;;;;8397720;28;20049;-94
2023/10/26 12:13:29;;;;;;;6.53;2.90;;;;;;;;;;8392570;28;20173;-91
2023/10/26 12:18:05;;;;;;;4.50;3.03;;;;;;;;;;8401722;28;20029;-90
2023/10/26 12:22:11;;;;;;;3.45;2.42;;;;;;;;;;8409992;28;20044;-91
2023/10/26 12:26:16;;;;;;;8.98;3.70;;;;;;;;;;8395995;28;20045;-89
2023/10/26 12:30:19;;;;;;;6.07;3.33;;;;;;;;;;8389632;28;20447;-91
2023/10/26 12:34:22;;;;;;;4.78;2.85;;;;;;;;;;8387895;28;20052;-93
2023/10/26 12:38:25;;;;;;;5.45;2.67;;;;;;;;;;8408506;28;20041;-90
2023/10/26 12:42:32;;;;;;;3.70;2.15;;;;;;;;;;8394543;28;20511;-90
2023/10/26 12:46:34;;;;;;;4.00;2.22;;;;;;;;;;8385731;28;20048;-91
2023/10/26 12:50:39;;;;;;;6.00;2.28;;;;;;;;;;8409392;28;20052;-89
2023/10/26 12:54:43;;;;;;;3.58;2.10;;;;;;;;;;8386004;28;20048;-90
2023/10/26 12:58:48;;;;;;;4.03;2.80;;;;;;;;;;8408103;28;20095;-90
2023/10/26 13:02:52;;;;;;;6.55;3.53;;;;;;;;;;8394953;28;20450;-91
2023/10/26 13:06:55;;;;;;;6.55;3.50;;;;;;;;;;8388415;28;20053;-95
2023/10/26 13:10:58;;;;;;;8.07;3.78;;;;;;;;;;8397127;28;20500;-92
2023/10/26 13:15:04;;;;;;;4.57;3.10;;;;;;;;;;8397655;28;20139;-93
2023/10/26 13:19:07;;;;;;;5.50;2.70;;;;;;;;;;8397416;28;20102;-89
2023/10/26 13:23:10;;;;;;;6.65;3.40;;;;;;;;;;8384489;28;20045;-94
2023/10/26 13:27:13;;;;;;;6.43;4.00;;;;;;;;;;8398099;28;20049;-89
2023/10/26 13:31:18;;;;;;;8.13;3.55;;;;;;;;;;8396163;28;20067;-94
2023/10/26 13:35:20;;;;;;;5.97;3.90;;;;;;;;;;8397267;28;20048;-92
2023/10/26 13:39:23;;;;;;;5.70;3.42;;;;;;;;;;8381956;28;20045;-92
2023/10/26 13:43:27;;;;;;;6.65;3.50;;;;;;;;;;8373038;28;20800;-94
2023/10/26 13:47:32;;;;;;;3.85;2.50;;;;;;;;;;8382834;28;20480;-94
2023/10/26 13:51:35;;;;;;;5.75;2.53;;;;;;;;;;8397581;28;20045;-90
2023/10/26 13:55:38;;;;;;;2.90;1.92;;;;;;;;;;8388748;28;20063;-93
2023/10/26 13:59:41;;;;;;;5.80;1.95;;;;;;;;;;8400344;28;20055;-93
2023/10/26 14:03:46;;;;;;;3.40;2.10;;;;;;;;;;8379793;28;20041;-90
2023/10/26 14:07:49;;;;;;;5.57;2.28;;;;;;;;;;8395883;28;20075;-91
2023/10/26 14:11:52;;;;;;;3.45;2.08;;;;;;;;;;8396395;28;20470;-92
2023/10/26 14:15:58;;;;;;;2.97;1.98;;;;;;;;;;8386947;28;20098;-95
2023/10/26 14:20:04;;;;;;;6.90;3.20;;;;;;;;;;8388778;28;20063;-93
2023/10/26 14:24:10;;;;;;;7.25;3.70;;;;;;;;;;8400142;28;20055;-90
2023/10/26 14:28:13;;;;;;;5.85;3.08;;;;;;;;;;8402445;28;20515;-91
2023/10/26 14:32:19;;;;;;;6.82;3.20;;;;;;;;;;8389896;28;20459;-95
2023/10/26 14:36:26;;;;;;;3.38;2.17;;;;;;;;;;8389525;28;20040;-96
2023/10/26 14:40:30;;;;;;;7.88;4.18;;;;;;;;;;8402436;28;20409;-90
2023/10/26 14:44:33;;;;;;;18.70;10.15;;;;;;;;;;8388122;28;20063;-94
2023/10/26 14:48:35;;;;;;;8.15;3.85;;;;;;;;;;8388941;28;20049;-95
2023/10/26 14:52:42;;;;;;;4.95;2.75;;;;;;;;;;8397467;28;20131;-93
2023/10/26 14:56:45;;;;;;;4.57;2.58;;;;;;;;;;8398694;28;20087;-90
2023/10/26 15:00:49;;;;;;;4.05;2.55;;;;;;;;;;8392759;28;20055;-93
2023/10/26 15:04:59;;;;;;;7.95;3.10;;;;;;;;;;8400177;28;20044;-90
2023/10/26 15:09:10;;;;;;;5.07;2.90;;;;;;;;;;8400852;28;20110;-88
2023/10/26 15:13:14;;;;;;;5.15;2.50;;;;;;;;;;8397393;28;20044;-89
2023/10/26 15:17:22;;;;;;;3.85;2.50;;;;;;;;;;8393199;28;20071;-89
2023/10/26 15:21:28;;;;;;;7.13;2.78;;;;;;;;;;8404645;28;20091;-92
2023/10/26 15:25:41;;;;;;;4.40;1.92;;;;;;;;;;8400925;28;20052;-90
2023/10/26 15:30:07;;;;;;;4.50;2.65;;;;;;;;;;8397583;28;20041;-90
2023/10/26 15:34:10;;;;;;;4.65;2.10;;;;;;;;;;8386346;28;20059;-90
2023/10/26 15:38:13;;;;;;;3.92;2.03;;;;;;;;;;8383365;28;20059;-89
2023/10/26 15:42:34;;;;;;;2.05;1.73;;;;;;;;;;8393778;28;20484;-91
2023/10/26 15:46:38;;;;;;;8.93;6.20;;;;;;;;;;8397471;28;20056;-92
2023/10/26 15:50:43;;;;;;;5.32;2.03;;;;;;;;;;8379268;28;20048;-95
2023/10/26 15:54:47;;;;;;;9.38;5.80;;;;;;;;;;8399858;28;20127;-91
2023/10/26 15:58:56;;;;;;;12.80;9.75;;;;;;;;;;8419132;28;20058;-92
2023/10/26 16:03:00;;;;;;;4.07;2.67;;;;;;;;;;8376131;28;20491;-89
2023/10/26 16:07:04;;;;;;;5.68;3.05;;;;;;;;;;8399069;28;20056;-88
2023/10/26 16:11:11;;;;;;;9.20;4.25;;;;;;;;;;8393335;28;20048;-90
2023/10/26 16:15:19;;;;;;;6.25;4.05;;;;;;;;;;8401461;28;20051;-94
2023/10/26 16:19:23;;;;;;;21.55;12.60;;;;;;;;;;8400225;28;20143;-90
2023/10/26 16:23:26;;;;;;;10.30;4.85;;;;;;;;;;8400560;28;20442;-90
2023/10/26 16:27:35;;;;;;;11.07;7.18;;;;;;;;;;8399429;28;20554;-95
2023/10/26 16:31:40;;;;;;;10.63;5.03;;;;;;;;;;8397636;28;20070;-94
2023/10/26 16:35:45;;;;;;;10.27;4.88;;;;;;;;;;8392095;28;20036;-95
2023/10/26 16:39:51;;;;;;;9.68;5.20;;;;;;;;;;8393754;28;20509;-94
2023/10/26 16:43:56;;;;;;;9.13;5.30;;;;;;;;;;8390767;28;20071;-91
2023/10/26 16:48:01;;;;;;;11.30;6.40;;;;;;;;;;8388273;28;20068;-94
2023/10/26 16:52:05;;;;;;;5.93;3.95;;;;;;;;;;8391569;28;20113;-92
2023/10/26 16:56:11;;;;;;;11.55;5.13;;;;;;;;;;8382604;28;20063;-95
2023/10/26 17:00:17;;;;;;;8.30;5.10;;;;;;;;;;8371974;28;20422;-91
2023/10/26 17:04:23;;;;;;;13.00;10.38;;;;;;;;;;8377448;28;20126;-91
2023/10/26 17:08:30;;;;;;;9.52;5.28;;;;;;;;;;8389694;28;20049;-96
2023/10/26 17:12:35;;;;;;;10.38;5.03;;;;;;;;;;8381319;28;20110;-91
2023/10/26 17:16:38;;;;;;;10.95;6.50;;;;;;;;;;8391888;28;20041;-93
2023/10/26 17:20:56;;;;;;;12.77;7.95;;;;;;;;;;8389274;28;20037;-96
2023/10/26 17:25:03;;;;;;;10.52;6.50;;;;;;;;;;8381334;28;20071;-92
2023/10/26 17:29:10;;;;;;;8.88;4.13;;;;;;;;;;8401866;28;20063;-95
2023/10/26 17:33:17;;;;;;;8.85;4.32;;;;;;;;;;8383106;28;20392;-92
2023/10/26 17:37:24;;;;;;;6.63;4.30;;;;;;;;;;8400049;28;20123;-93
2023/10/26 17:41:29;;;;;;;6.50;3.55;;;;;;;;;;8395229;28;20047;-91
2023/10/26 17:45:35;;;;;;;8.10;3.63;;;;;;;;;;8399223;28;20040;-95
2023/10/26 17:49:52;;;;;;;7.00;4.30;;;;;;;;;;8400150;28;20041;-94
2023/10/26 17:54:19;;;;;;;5.28;3.28;;;;;;;;;;8393887;22;20063;-94
2023/10/26 17:58:26;;;;;;;6.43;3.63;;;;;;;;;;8413593;22;20143;-95
2023/10/26 18:02:39;;;;;;;5.93;3.80;;;;;;;;;;8430680;28;20139;-93
2023/10/26 18:06:47;;;;;;;7.47;3.42;;;;;;;;;;8432126;28;20044;-94
2023/10/26 18:11:00;;;;;;;6.47;4.28;;;;;;;;;;8436351;28;20067;-94
2023/10/26 18:15:08;;;;;;;8.35;4.30;;;;;;;;;;8434929;28;20097;-96
2023/10/26 18:19:13;;;;;;;9.95;5.32;;;;;;;;;;8435965;28;20070;-94
2023/10/26 18:23:18;;;;;;;8.70;4.78;;;;;;;;;;8422622;28;20048;-93
2023/10/26 18:27:31;;;;;;;7.53;4.70;;;;;;;;;;8429828;28;20041;-93
2023/10/26 18:31:40;;;;;;;6.50;3.78;;;;;;;;;;8430198;28;20411;-93
2023/10/26 18:35:46;;;;;;;9.63;4.32;;;;;;;;;;8428219;28;20063;-95
2023/10/26 18:39:59;;;;;;;7.35;3.50;;;;;;;;;;8411292;22;20502;-93
2023/10/26 18:48:31;;;;;;;9.90;5.28;;;;;;;;;;8386548;28;20065;-93
2023/10/26 18:52:35;;;;;;;9.82;5.43;;;;;;;;;;8383174;28;20044;-93
2023/10/26 18:56:40;;;;;;;14.70;7.57;;;;;;;;;;8395647;28;20051;-93
2023/10/26 19:00:58;;;;;;;9.35;3.90;;;;;;;;;;8393659;28;20040;-92
2023/10/26 19:05:04;;;;;;;6.13;3.10;;;;;;;;;;8378417;28;20409;-92
2023/10/26 19:09:16;;;;;;;7.28;3.50;;;;;;;;;;8399015;28;20056;-94
2023/10/26 19:13:21;;;;;;;6.28;3.58;;;;;;;;;;8396851;28;20048;-94
2023/10/26 19:22:43;;;;;;;7.47;3.90;;;;;;;;;;8412588;28;20079;-91
2023/10/26 19:26:52;;;;;;;6.70;4.20;;;;;;;;;;8440988;22;20080;-92
2023/10/26 19:30:59;;;;;;;8.05;3.60;;;;;;;;;;8403853;28;20063;-92
2023/10/26 19:35:14;;;;;;;6.97;4.22;;;;;;;;;;8448969;28;20060;-94
2023/10/26 19:40:04;;;;;;;6.30;4.03;;;;;;;;;;8435351;28;20067;-94
2023/10/26 19:44:40;;;;;;;7.38;4.05;;;;;;;;;;8449813;28;20047;-92
2023/10/26 19:49:00;;;;;;;8.68;4.07;;;;;;;;;;8453600;28;20071;-94
2023/10/26 19:57:42;;;;;;;7.97;4.60;;;;;;;;;;8437530;28;20141;-91
2023/10/26 20:01:58;;;;;;;8.95;4.68;;;;;;;;;;8460306;28;20043;-90
2023/10/26 20:06:21;;;;;;;9.88;4.88;;;;;;;;;;8439916;28;20047;-89
2023/10/26 20:10:27;;;;;;;7.63;4.65;;;;;;;;;;8453541;28;20579;-95
2023/10/26 20:14:33;;;;;;;7.80;4.43;;;;;;;;;;8437242;28;20522;-95
2023/10/26 20:18:44;;;;;;;9.13;4.47;;;;;;;;;;8441174;28;20570;-95
2023/10/26 20:22:50;;;;;;;9.73;4.53;;;;;;;;;;8455662;28;20117;-95
2023/10/26 20:26:55;;;;;;;6.53;4.55;;;;;;;;;;8431027;28;20055;-90
2023/10/26 20:31:03;;;;;;;8.82;4.63;;;;;;;;;;8437291;28;20044;-90
2023/10/26 20:35:10;;;;;;;10.27;4.85;;;;;;;;;;8439504;28;20480;-91
2023/10/26 20:39:16;;;;;;;9.50;4.80;;;;;;;;;;8467007;28;20048;-94
2023/10/26 20:43:21;;;;;;;8.80;5.05;;;;;;;;;;8447622;28;20044;-90
2023/10/26 20:47:26;;;;;;;11.68;5.90;;;;;;;;;;8443277;28;20445;-91
2023/10/26 20:51:30;;;;;;;8.57;5.63;;;;;;;;;;8415529;28;20052;-89
2023/10/26 20:55:33;;;;;;;13.00;6.63;;;;;;;;;;8435248;28;20465;-96
2023/10/26 20:59:41;;;;;;;11.20;6.82;;;;;;;;;;8437843;28;20048;-92
2023/10/26 21:03:46;;;;;;;11.60;6.82;;;;;;;;;;8441117;28;20119;-90
2023/10/26 21:07:49;;;;;;;12.35;6.43;;;;;;;;;;8449718;28;20048;-90
2023/10/26 21:12:02;;;;;;;11.45;6.53;;;;;;;;;;8447920;28;20040;-96
2023/10/26 21:16:06;;;;;;;11.93;6.55;;;;;;;;;;8448389;28;20052;-90
2023/10/26 21:20:12;;;;;;;13.43;7.65;;;;;;;;;;8451593;28;20114;-90
2023/10/26 21:24:18;;;;;;;11.05;7.00;;;;;;;;;;8451163;28;20071;-92
2023/10/26 21:28:23;;;;;;;12.02;7.90;;;;;;;;;;8463997;28;20044;-91
2023/10/26 21:32:26;;;;;;;15.18;8.65;;;;;;;;;;8463309;28;20044;-94
2023/10/26 21:36:33;;;;;;;14.82;8.70;;;;;;;;;;8458397;28;20518;-94
2023/10/26 21:40:39;;;;;;;14.07;8.95;;;;;;;;;;8458228;28;20050;-95
2023/10/26 21:44:42;;;;;;;18.30;8.27;;;;;;;;;;8458543;28;20399;-96
2023/10/26 21:48:46;;;;;;;16.85;8.90;;;;;;;;;;8460314;28;20066;-96
2023/10/26 21:52:51;;;;;;;16.95;9.55;;;;;;;;;;8455343;28;20063;-90
2023/10/26 21:57:01;;;;;;;24.90;10.43;;;;;;;;;;8452687;28;20089;-93
2023/10/26 22:01:06;;;;;;;23.23;11.80;;;;;;;;;;8452103;28;20040;-96
2023/10/26 22:05:09;;;;;;;21.42;10.68;;;;;;;;;;8451346;28;20048;-89
2023/10/26 22:09:14;;;;;;;22.02;10.70;;;;;;;;;;8467469;28;20055;-96
2023/10/26 22:13:17;;;;;;;21.90;11.63;;;;;;;;;;8465640;28;20123;-91
2023/10/26 22:17:24;;;;;;;20.05;10.70;;;;;;;;;;8438084;28;20100;-95
2023/10/26 22:21:27;;;;;;;20.13;10.85;;;;;;;;;;8421798;28;20045;-94
2023/10/26 22:25:42;;;;;;;18.17;10.77;;;;;;;;;;8444154;28;20035;-93
2023/10/26 22:29:46;;;;;;;18.55;10.48;;;;;;;;;;8466494;28;20124;-90
2023/10/26 22:33:50;;;;;;;16.70;9.60;;;;;;;;;;8464138;28;20134;-90
2023/10/26 22:37:57;;;;;;;19.33;10.93;;;;;;;;;;8477341;28;20027;-90
2023/10/26 22:42:02;;;;;;;26.77;11.48;;;;;;;;;;8457395;28;20044;-91
2023/10/26 22:46:17;;;;;;;25.73;12.10;;;;;;;;;;8455248;28;20060;-93
2023/10/26 22:50:20;;;;;;;27.02;12.40;;;;;;;;;;8464765;28;20071;-90
2023/10/26 22:54:29;;;;;;;28.15;12.32;;;;;;;;;;8470664;28;20490;-96
2023/10/26 22:58:34;;;;;;;28.55;12.75;;;;;;;;;;8454374;28;20051;-89
2023/10/26 23:02:37;;;;;;;29.45;12.40;;;;;;;;;;8463601;28;20036;-95
2023/10/26 23:06:41;;;;;;;25.65;12.80;;;;;;;;;;8463841;28;20048;-95
2023/10/26 23:10:46;;;;;;;27.00;12.82;;;;;;;;;;8441259;28;20036;-91
2023/10/26 23:14:51;;;;;;;25.75;12.63;;;;;;;;;;8480841;28;20475;-91
2023/10/26 23:18:57;;;;;;;25.85;12.55;;;;;;;;;;8454223;28;20059;-96
2023/10/26 23:23:02;;;;;;;22.75;11.70;;;;;;;;;;8463030;28;20048;-91
2023/10/26 23:27:28;;;;;;;26.52;13.57;;;;;;;;;;8473586;28;20119;-94
2023/10/26 23:31:34;;;;;;;23.73;13.23;;;;;;;;;;8476904;28;20044;-93
2023/10/26 23:35:43;;;;;;;25.50;12.60;;;;;;;;;;8474762;28;20488;-94
2023/10/26 23:39:46;;;;;;;26.95;13.52;;;;;;;;;;8444881;28;20084;-89
2023/10/26 23:43:54;;;;;;;26.15;12.75;;;;;;;;;;8456399;28;20069;-95
2023/10/26 23:47:58;;;;;;;21.00;12.27;;;;;;;;;;8420064;28;20051;-91
2023/10/26 23:52:11;;;;;;;19.95;11.50;;;;;;;;;;8462511;28;20055;-88
2023/10/26 23:56:15;;;;;;;22.23;11.98;;;;;;;;;;8464656;28;20115;-93
